createdAt,value
2019-03-15T00:00:22.821Z,91.00
2019-03-15T00:03:09.219Z,91.00
2019-03-15T00:05:54.541Z,90.90
2019-03-15T00:08:39.508Z,90.90
2019-03-15T00:11:24.511Z,90.80
2019-03-15T00:14:09.482Z,90.80
2019-03-15T00:16:54.742Z,90.90
2019-03-15T00:19:40.088Z,90.80
2019-03-15T00:22:25.250Z,90.80
2019-03-15T00:25:11.609Z,90.80
2019-03-15T00:27:56.575Z,90.80
2019-03-15T00:30:42.776Z,90.80
2019-03-15T00:33:28.352Z,90.90
2019-03-15T00:36:13.681Z,90.80
2019-03-15T00:38:59.072Z,90.90
2019-03-15T00:41:44.313Z,90.80
2019-03-15T00:44:29.538Z,90.80
2019-03-15T00:47:14.797Z,90.90
2019-03-15T00:50:00.368Z,90.90
2019-03-15T00:52:45.982Z,90.90
2019-03-15T00:55:30.913Z,90.90
2019-03-15T00:58:17.837Z,90.90
2019-03-15T01:01:03.134Z,90.90
2019-03-15T01:03:48.289Z,90.80
2019-03-15T01:06:33.432Z,90.80
2019-03-15T01:09:19.887Z,90.90
2019-03-15T01:12:04.877Z,90.90
2019-03-15T01:14:49.714Z,90.90
2019-03-15T01:17:35.137Z,90.90
2019-03-15T01:20:20.340Z,91.30
2019-03-15T01:23:05.491Z,90.90
2019-03-15T01:25:50.692Z,90.90
2019-03-15T01:28:35.872Z,91.00
2019-03-15T01:31:21.142Z,91.00
2019-03-15T01:34:06.215Z,91.00
2019-03-15T01:36:51.591Z,90.90
2019-03-15T01:39:36.918Z,90.80
2019-03-15T01:42:22.394Z,90.90
2019-03-15T01:45:07.716Z,90.70
2019-03-15T01:47:52.658Z,90.80
2019-03-15T01:50:39.147Z,90.90
2019-03-15T01:53:24.403Z,90.80
2019-03-15T01:56:09.605Z,90.80
2019-03-15T01:58:55.064Z,90.80
2019-03-15T02:01:40.140Z,90.90
2019-03-15T02:04:25.417Z,90.80
2019-03-15T02:07:10.393Z,90.90
2019-03-15T02:09:55.626Z,90.90
2019-03-15T02:12:41.077Z,90.80
2019-03-15T02:15:26.371Z,90.70
2019-03-15T02:18:11.559Z,90.80
2019-03-15T02:20:56.789Z,90.80
2019-03-15T02:23:41.908Z,90.90
2019-03-15T02:26:29.564Z,90.80
2019-03-15T02:29:15.174Z,90.80
2019-03-15T02:32:00.484Z,90.80
2019-03-15T02:34:45.662Z,90.60
2019-03-15T02:37:30.883Z,90.70
2019-03-15T02:40:16.527Z,90.70
2019-03-15T02:43:01.531Z,90.80
2019-03-15T02:45:47.598Z,90.80
2019-03-15T02:48:32.703Z,90.60
2019-03-15T02:51:17.838Z,90.70
2019-03-15T02:54:04.907Z,90.70
2019-03-15T02:56:50.547Z,90.70
2019-03-15T02:59:36.153Z,90.70
2019-03-15T03:02:20.882Z,90.70
2019-03-15T03:05:08.456Z,90.50
2019-03-15T03:07:53.755Z,90.70
2019-03-15T03:10:38.922Z,90.70
2019-03-15T03:13:24.323Z,90.70
2019-03-15T03:16:09.484Z,90.70
2019-03-15T03:18:54.766Z,90.60
2019-03-15T03:21:40.063Z,90.80
2019-03-15T03:24:25.159Z,90.80
2019-03-15T03:27:10.783Z,90.80
2019-03-15T03:29:55.548Z,90.80
2019-03-15T03:32:42.909Z,90.90
2019-03-15T03:35:27.050Z,90.80
2019-03-15T03:38:12.718Z,91.20
2019-03-15T03:40:57.637Z,91.70
2019-03-15T03:43:42.962Z,92.10
2019-03-15T03:46:28.465Z,92.20
2019-03-15T03:49:13.138Z,92.40
2019-03-15T03:51:58.408Z,92.70
2019-03-15T03:54:43.725Z,92.80
2019-03-15T03:57:29.041Z,92.90
2019-03-15T04:00:14.903Z,92.90
2019-03-15T04:03:00.192Z,92.90
2019-03-15T04:05:45.469Z,93.00
2019-03-15T04:08:30.404Z,93.20
2019-03-15T04:11:16.005Z,93.20
2019-03-15T04:14:01.065Z,93.30
2019-03-15T04:16:46.201Z,93.40
2019-03-15T04:19:31.621Z,93.40
2019-03-15T04:22:17.893Z,93.50
2019-03-15T04:25:07.192Z,93.50
2019-03-15T04:27:52.269Z,93.60
2019-03-15T04:30:39.005Z,93.70
2019-03-15T04:33:24.165Z,93.60
2019-03-15T04:36:09.412Z,93.70
2019-03-15T04:38:54.541Z,93.60
2019-03-15T04:41:39.652Z,93.70
2019-03-15T04:44:24.401Z,93.60
2019-03-15T04:47:09.676Z,93.60
2019-03-15T04:49:54.898Z,93.60
2019-03-15T04:52:40.176Z,93.50
2019-03-15T04:55:25.560Z,93.50
2019-03-15T04:58:10.984Z,93.50
2019-03-15T05:00:56.303Z,93.40
2019-03-15T05:03:41.709Z,93.50
2019-03-15T05:06:26.773Z,93.40
2019-03-15T05:09:13.224Z,93.50
2019-03-15T05:11:58.347Z,93.50
2019-03-15T05:14:43.541Z,93.40
2019-03-15T05:17:28.773Z,93.30
2019-03-15T05:20:13.995Z,93.40
2019-03-15T05:22:58.702Z,93.40
2019-03-15T05:25:43.926Z,93.40
2019-03-15T05:28:29.384Z,93.50
2019-03-15T05:31:14.557Z,93.50
2019-03-15T05:34:01.282Z,93.40
2019-03-15T05:37:06.538Z,93.30
2019-03-15T05:39:51.914Z,93.40
2019-03-15T05:42:37.100Z,93.30
2019-03-15T05:45:21.877Z,93.20
2019-03-15T05:48:07.528Z,93.40
2019-03-15T05:50:52.657Z,93.50
2019-03-15T05:53:37.827Z,93.60
2019-03-15T05:56:23.075Z,93.60
2019-03-15T05:59:08.447Z,94.20
2019-03-15T06:01:54.513Z,93.80
2019-03-15T06:04:39.613Z,93.90
2019-03-15T06:07:25.425Z,93.80
2019-03-15T06:10:11.643Z,93.80
2019-03-15T06:12:56.671Z,93.70
2019-03-15T06:15:41.960Z,93.80
2019-03-15T06:18:27.179Z,93.80
2019-03-15T06:21:12.750Z,93.90
2019-03-15T06:23:58.442Z,93.90
2019-03-15T06:26:43.526Z,94.10
2019-03-15T06:29:28.998Z,94.20
2019-03-15T06:32:13.873Z,94.10
2019-03-15T06:34:58.954Z,94.10
2019-03-15T06:37:44.313Z,94.10
2019-03-15T06:40:29.423Z,94.10
2019-03-15T06:43:14.595Z,94.10
2019-03-15T06:45:59.601Z,94.10
2019-03-15T06:48:45.390Z,94.10
2019-03-15T06:51:30.625Z,94.00
2019-03-15T06:54:15.836Z,94.00
2019-03-15T06:57:01.391Z,94.00
2019-03-15T06:59:46.598Z,93.90
2019-03-15T07:02:31.903Z,94.00
2019-03-15T07:05:18.251Z,93.80
2019-03-15T07:08:03.649Z,93.80
2019-03-15T07:10:48.714Z,93.80
2019-03-15T07:13:34.002Z,93.70
2019-03-15T07:16:19.175Z,93.70
2019-03-15T07:19:04.303Z,93.70
2019-03-15T07:21:49.761Z,93.50
2019-03-15T07:24:35.379Z,93.40
2019-03-15T07:27:20.362Z,93.50
2019-03-15T07:30:11.191Z,93.70
2019-03-15T07:32:56.768Z,93.90
2019-03-15T07:35:41.907Z,94.00
2019-03-15T07:38:27.670Z,94.20
2019-03-15T07:41:12.575Z,94.20
2019-03-15T07:43:57.578Z,94.40
2019-03-15T07:46:42.640Z,94.00
2019-03-15T07:49:28.081Z,93.90
2019-03-15T07:52:13.747Z,93.70
2019-03-15T07:54:58.727Z,93.60
2019-03-15T07:57:44.262Z,93.80
2019-03-15T08:00:29.218Z,93.40
2019-03-15T08:03:14.575Z,93.10
2019-03-15T08:05:59.758Z,92.90
2019-03-15T08:08:45.016Z,93.00
2019-03-15T08:11:30.425Z,93.10
2019-03-15T08:14:15.502Z,92.90
2019-03-15T08:17:00.747Z,92.80
2019-03-15T08:19:45.424Z,92.70
2019-03-15T08:22:30.725Z,92.50
2019-03-15T08:25:16.139Z,92.60
2019-03-15T08:28:01.616Z,92.30
2019-03-15T08:30:46.748Z,92.20
2019-03-15T08:33:32.123Z,92.10
2019-03-15T08:36:20.146Z,91.80
2019-03-15T08:39:05.456Z,91.70
2019-03-15T08:41:50.259Z,91.70
2019-03-15T08:44:35.977Z,91.80
2019-03-15T08:47:21.869Z,91.50
2019-03-15T08:50:10.315Z,91.30
2019-03-15T08:52:56.004Z,91.30
2019-03-15T08:55:40.643Z,91.30
2019-03-15T08:58:25.415Z,91.20
2019-03-15T09:01:11.043Z,91.50
2019-03-15T09:03:56.575Z,91.60
2019-03-15T09:06:41.649Z,91.80
2019-03-15T09:09:26.838Z,92.00
2019-03-15T09:12:11.609Z,91.90
2019-03-15T09:14:56.697Z,91.30
2019-03-15T09:17:42.239Z,90.70
2019-03-15T09:20:30.316Z,90.20
2019-03-15T09:23:13.871Z,90.60
2019-03-15T09:25:59.489Z,90.60
2019-03-15T09:28:44.426Z,90.60
2019-03-15T09:31:42.394Z,91.00
2019-03-15T09:34:16.998Z,90.90
2019-03-15T09:37:01.923Z,91.40
2019-03-15T09:39:47.290Z,91.90
2019-03-15T09:42:33.019Z,91.90
2019-03-15T09:45:18.487Z,91.40
2019-03-15T09:48:03.613Z,91.20
2019-03-15T09:50:51.491Z,91.30
2019-03-15T09:53:35.734Z,90.80
2019-03-15T09:56:20.695Z,91.10
2019-03-15T09:59:06.060Z,90.80
2019-03-15T10:01:51.327Z,90.30
2019-03-15T10:04:36.943Z,90.20
2019-03-15T10:07:22.099Z,90.00
2019-03-15T10:10:14.143Z,90.00
2019-03-15T10:13:05.698Z,90.10
2019-03-15T10:15:46.677Z,89.90
2019-03-15T10:18:31.951Z,89.80
2019-03-15T10:21:17.464Z,89.60
2019-03-15T10:24:02.840Z,89.30
2019-03-15T10:26:48.025Z,89.40
2019-03-15T10:29:33.150Z,89.20
2019-03-15T10:32:18.162Z,88.70
2019-03-15T10:35:04.932Z,88.40
2019-03-15T10:37:50.228Z,88.70
2019-03-15T10:40:36.463Z,87.40
2019-03-15T10:43:21.619Z,86.10
2019-03-15T10:46:06.823Z,85.80
2019-03-15T10:48:52.464Z,85.80
2019-03-15T10:51:38.015Z,85.70
2019-03-15T10:54:22.933Z,84.80
2019-03-15T10:57:07.967Z,85.00
2019-03-15T10:59:52.973Z,83.80
2019-03-15T11:02:37.902Z,84.10
2019-03-15T11:05:23.137Z,83.60
2019-03-15T11:08:08.331Z,82.20
2019-03-15T11:10:53.611Z,81.50
2019-03-15T11:13:38.706Z,81.30
2019-03-15T11:16:23.659Z,81.60
2019-03-15T11:19:08.906Z,81.60
2019-03-15T11:21:54.035Z,81.00
2019-03-15T11:24:39.317Z,81.70
2019-03-15T11:27:24.522Z,82.10
2019-03-15T11:30:11.811Z,83.40
2019-03-15T11:32:56.630Z,83.80
2019-03-15T11:35:41.966Z,84.80
2019-03-15T11:38:27.353Z,84.80
2019-03-15T11:41:12.547Z,84.80
2019-03-15T11:43:58.133Z,84.70
2019-03-15T11:46:43.582Z,83.90
2019-03-15T11:49:28.747Z,83.20
2019-03-15T11:52:14.017Z,82.40
2019-03-15T11:54:59.755Z,80.60
2019-03-15T11:57:44.679Z,79.00
2019-03-15T12:00:29.573Z,77.00
2019-03-15T12:03:14.868Z,77.00
2019-03-15T12:06:00.053Z,77.20
2019-03-15T12:08:45.487Z,77.00
2019-03-15T12:11:30.605Z,77.40
2019-03-15T12:14:15.973Z,77.70
2019-03-15T12:17:01.509Z,78.30
2019-03-15T12:19:46.464Z,79.20
2019-03-15T12:22:32.086Z,79.80
2019-03-15T12:25:16.896Z,80.00
2019-03-15T12:28:02.047Z,80.00
2019-03-15T12:30:47.192Z,80.40
2019-03-15T12:33:32.127Z,80.30
2019-03-15T12:36:17.753Z,79.40
2019-03-15T12:39:05.133Z,78.70
2019-03-15T12:41:50.132Z,79.00
2019-03-15T12:44:35.183Z,79.20
2019-03-15T12:47:20.510Z,79.40
2019-03-15T12:50:08.417Z,79.50
2019-03-15T12:52:54.142Z,79.10
2019-03-15T12:55:39.396Z,78.50
2019-03-15T12:58:24.672Z,78.00
2019-03-15T13:01:09.884Z,76.70
2019-03-15T13:03:55.125Z,76.20
2019-03-15T13:06:40.516Z,74.60
2019-03-15T13:09:26.045Z,74.60
2019-03-15T13:12:11.092Z,75.70
2019-03-15T13:14:56.632Z,76.20
2019-03-15T13:17:41.602Z,76.60
2019-03-15T13:20:26.872Z,76.90
2019-03-15T13:23:12.065Z,77.20
2019-03-15T13:25:57.427Z,77.40
2019-03-15T13:28:42.461Z,77.70
2019-03-15T13:31:28.086Z,78.70
2019-03-15T13:34:13.409Z,79.90
2019-03-15T13:36:59.277Z,79.60
2019-03-15T13:39:44.588Z,77.70
2019-03-15T13:42:29.664Z,76.70
2019-03-15T13:45:16.151Z,77.30
2019-03-15T13:48:01.168Z,77.40
2019-03-15T13:50:46.734Z,77.30
2019-03-15T13:53:32.237Z,77.50
2019-03-15T13:56:17.548Z,77.90
2019-03-15T13:59:02.719Z,78.10
2019-03-15T14:01:47.974Z,78.10
2019-03-15T14:04:33.139Z,77.80
2019-03-15T14:07:19.967Z,78.30
2019-03-15T14:10:08.567Z,78.00
2019-03-15T14:12:53.535Z,78.00
2019-03-15T14:15:39.226Z,77.60
2019-03-15T14:18:24.332Z,77.50
2019-03-15T14:21:09.622Z,77.80
2019-03-15T14:23:54.872Z,77.50
2019-03-15T14:26:40.215Z,76.10
2019-03-15T14:29:25.152Z,76.10
2019-03-15T14:32:10.096Z,75.20
2019-03-15T14:34:54.874Z,74.90
2019-03-15T14:37:40.398Z,74.20
2019-03-15T14:40:25.654Z,73.60
2019-03-15T14:43:11.115Z,72.60
2019-03-15T14:45:56.622Z,72.90
2019-03-15T14:48:42.099Z,74.00
2019-03-15T14:51:27.477Z,73.80
2019-03-15T14:54:12.694Z,73.90
2019-03-15T14:56:58.108Z,74.50
2019-03-15T14:59:43.273Z,74.80
2019-03-15T15:02:28.492Z,74.70
2019-03-15T15:05:13.778Z,75.10
2019-03-15T15:07:58.838Z,74.80
2019-03-15T15:10:44.285Z,75.50
2019-03-15T15:13:29.287Z,75.60
2019-03-15T15:16:14.829Z,76.10
2019-03-15T15:18:59.908Z,76.70
2019-03-15T15:21:45.143Z,76.60
2019-03-15T15:24:30.955Z,76.50
2019-03-15T15:27:16.283Z,76.40
2019-03-15T15:30:03.105Z,76.40
2019-03-15T15:32:50.282Z,76.50
2019-03-15T15:35:36.316Z,76.70
2019-03-15T15:38:21.710Z,76.00
2019-03-15T15:41:10.143Z,76.40
2019-03-15T15:43:55.242Z,76.00
2019-03-15T15:46:40.288Z,74.80
2019-03-15T15:49:26.314Z,74.90
2019-03-15T15:52:11.889Z,74.60
2019-03-15T15:54:59.087Z,74.80
2019-03-15T15:57:44.009Z,75.40
2019-03-15T16:00:29.412Z,75.20
2019-03-15T16:03:14.555Z,75.50
2019-03-15T16:05:59.746Z,75.30
2019-03-15T16:08:44.869Z,75.40
2019-03-15T16:11:30.320Z,75.60
2019-03-15T16:14:15.687Z,75.90
2019-03-15T16:17:00.556Z,76.00
2019-03-15T16:19:45.948Z,76.20
2019-03-15T16:22:34.599Z,76.60
2019-03-15T16:25:19.465Z,76.60
2019-03-15T16:28:05.195Z,76.70
2019-03-15T16:30:50.238Z,76.70
2019-03-15T16:33:35.594Z,76.80
2019-03-15T16:36:20.747Z,77.00
2019-03-15T16:39:06.267Z,77.10
2019-03-15T16:41:51.488Z,77.30
2019-03-15T16:44:38.658Z,77.60
2019-03-15T16:47:23.696Z,77.60
2019-03-15T16:50:11.083Z,77.70
2019-03-15T16:52:56.156Z,77.70
2019-03-15T16:55:41.206Z,77.90
2019-03-15T16:58:26.148Z,78.00
2019-03-15T17:01:11.704Z,78.40
2019-03-15T17:03:56.644Z,78.80
2019-03-15T17:06:41.475Z,79.50
2019-03-15T17:09:26.406Z,79.90
2019-03-15T17:12:11.359Z,80.30
2019-03-15T17:14:57.577Z,80.80
2019-03-15T17:17:47.611Z,81.30
2019-03-15T17:20:30.195Z,81.60
2019-03-15T17:23:17.672Z,81.50
2019-03-15T17:26:02.797Z,81.90
2019-03-15T17:28:57.870Z,82.20
2019-03-15T17:31:36.396Z,82.30
2019-03-15T17:34:21.744Z,81.70
2019-03-15T17:37:08.530Z,82.20
2019-03-15T17:39:53.627Z,82.50
2019-03-15T17:42:39.084Z,82.20
2019-03-15T17:45:24.567Z,82.60
2019-03-15T17:48:09.726Z,83.30
2019-03-15T17:50:54.874Z,83.70
2019-03-15T17:53:39.700Z,83.90
2019-03-15T17:56:24.839Z,84.20
2019-03-15T17:59:12.597Z,84.50
2019-03-15T18:01:56.973Z,85.10
2019-03-15T18:04:44.475Z,85.20
2019-03-15T18:07:30.697Z,85.30
2019-03-15T18:10:16.565Z,85.80
2019-03-15T18:13:01.958Z,86.20
2019-03-15T18:15:47.000Z,86.60
2019-03-15T18:18:31.752Z,86.80
2019-03-15T18:21:17.185Z,87.30
2019-03-15T18:24:02.782Z,87.80
2019-03-15T18:26:48.210Z,88.00
2019-03-15T18:29:33.556Z,88.40
2019-03-15T18:32:19.412Z,88.90
2019-03-15T18:35:06.312Z,89.30
2019-03-15T18:37:51.590Z,89.80
2019-03-15T18:40:36.931Z,90.00
2019-03-15T18:43:22.211Z,90.20
2019-03-15T18:46:07.763Z,90.30
2019-03-15T18:48:52.951Z,90.30
2019-03-15T18:51:39.149Z,90.50
2019-03-15T18:54:25.409Z,90.60
2019-03-15T18:57:10.549Z,90.90
2019-03-15T18:59:55.931Z,91.10
2019-03-15T19:02:40.966Z,91.30
2019-03-15T19:05:26.272Z,91.60
2019-03-15T19:08:11.441Z,91.80
2019-03-15T19:10:56.621Z,92.00
2019-03-15T19:13:41.857Z,92.10
2019-03-15T19:16:27.147Z,92.10
2019-03-15T19:19:13.526Z,92.00
2019-03-15T19:21:59.780Z,92.00
2019-03-15T19:24:45.388Z,92.00
2019-03-15T19:27:30.741Z,91.90
2019-03-15T19:30:17.340Z,92.10
2019-03-15T19:33:02.677Z,91.90
2019-03-15T19:35:47.941Z,91.90
2019-03-15T19:38:33.167Z,91.80
2019-03-15T19:41:18.761Z,91.70
2019-03-15T19:44:04.911Z,91.80
2019-03-15T19:46:50.402Z,91.90
2019-03-15T19:49:35.355Z,91.60
2019-03-15T19:52:20.729Z,91.40
2019-03-15T19:55:09.281Z,91.50
2019-03-15T19:57:53.973Z,91.50
2019-03-15T20:00:40.275Z,91.50
2019-03-15T20:03:25.520Z,91.60
2019-03-15T20:06:10.807Z,91.30
2019-03-15T20:08:56.468Z,90.90
2019-03-15T20:11:41.472Z,90.70
2019-03-15T20:14:26.740Z,90.70
2019-03-15T20:17:12.057Z,90.50
2019-03-15T20:19:57.183Z,90.10
2019-03-15T20:22:42.565Z,89.20
2019-03-15T20:25:27.674Z,88.80
2019-03-15T20:28:13.341Z,86.80
2019-03-15T20:30:58.753Z,85.50
2019-03-15T20:33:45.897Z,82.90
2019-03-15T20:36:31.085Z,78.20
2019-03-15T20:39:18.308Z,77.30
2019-03-15T20:42:03.459Z,72.80
2019-03-15T20:44:49.524Z,72.60
2019-03-15T20:47:38.218Z,69.90
2019-03-15T20:50:23.678Z,70.70
2019-03-15T20:53:12.738Z,70.80
2019-03-15T20:55:55.741Z,71.50
2019-03-15T20:58:40.799Z,71.80
2019-03-15T21:01:25.932Z,72.60
2019-03-15T21:04:19.096Z,73.50
2019-03-15T21:07:04.875Z,74.00
2019-03-15T21:10:10.988Z,74.10
2019-03-15T21:12:55.939Z,74.30
2019-03-15T21:15:41.036Z,74.70
2019-03-15T21:18:26.630Z,74.30
2019-03-15T21:21:11.609Z,74.90
2019-03-15T21:23:56.397Z,75.80
2019-03-15T21:26:41.499Z,78.10
2019-03-15T21:29:26.661Z,79.60
2019-03-15T21:32:12.621Z,81.30
2019-03-15T21:34:58.206Z,81.70
2019-03-15T21:37:43.603Z,82.40
2019-03-15T21:40:28.861Z,83.00
2019-03-15T21:43:14.243Z,83.50
2019-03-15T21:46:00.457Z,83.60
2019-03-15T21:48:47.012Z,83.40
2019-03-15T21:51:32.143Z,83.50
2019-03-15T21:54:17.213Z,83.40
2019-03-15T21:57:02.721Z,82.80
2019-03-15T21:59:47.653Z,82.50
2019-03-15T22:02:33.003Z,80.90
2019-03-15T22:05:18.712Z,79.90
2019-03-15T22:08:04.441Z,79.10
2019-03-15T22:10:49.598Z,78.70
2019-03-15T22:13:34.855Z,78.00
2019-03-15T22:16:20.277Z,77.40
2019-03-15T22:19:05.422Z,77.50
2019-03-15T22:21:50.768Z,77.60
2019-03-15T22:24:35.937Z,77.30
2019-03-15T22:27:21.226Z,77.10
2019-03-15T22:30:12.120Z,77.00
2019-03-15T22:32:58.812Z,76.60
2019-03-15T22:35:44.070Z,76.50
2019-03-15T22:38:29.189Z,75.50
2019-03-15T22:41:14.582Z,75.70
2019-03-15T22:44:01.010Z,75.70
2019-03-15T22:46:46.209Z,76.40
2019-03-15T22:49:31.785Z,76.40
2019-03-15T22:52:17.092Z,76.30
2019-03-15T22:55:02.563Z,75.80
2019-03-15T22:57:59.270Z,76.00
2019-03-15T23:00:38.392Z,75.50
2019-03-15T23:03:24.200Z,74.40
2019-03-15T23:06:09.392Z,74.20
2019-03-15T23:08:54.853Z,74.40
2019-03-15T23:11:40.531Z,74.50
2019-03-15T23:14:26.356Z,74.70
2019-03-15T23:17:11.637Z,74.80
2019-03-15T23:19:57.000Z,74.20
2019-03-15T23:22:42.318Z,73.90
2019-03-15T23:25:27.573Z,73.20
2019-03-15T23:28:12.912Z,74.10
2019-03-15T23:30:58.197Z,73.40
2019-03-15T23:33:43.344Z,72.60
2019-03-15T23:36:28.313Z,72.70
2019-03-15T23:39:13.394Z,72.10
2019-03-15T23:41:59.904Z,72.20
2019-03-15T23:44:45.055Z,72.60
2019-03-15T23:47:29.861Z,73.50
2019-03-15T23:50:15.453Z,74.10
2019-03-15T23:53:00.514Z,74.60
2019-03-15T23:55:46.208Z,74.80
2019-03-15T23:58:31.035Z,75.80
